sensor_id;sensor_type;location;lat;lon;timestamp;P1;durP1;ratioP1;P2;durP2;ratioP2
18228;SDS011;9239;50.932;3.142;2023-04-07T00:01:44;10.40;;;9.33;;
18228;SDS011;9239;50.932;3.142;2023-04-07T00:04:11;12.30;;;9.20;;
18228;SDS011;9239;50.932;3.142;2023-04-07T00:06:38;11.63;;;8.40;;
18228;SDS011;9239;50.932;3.142;2023-04-07T00:09:07;9.73;;;7.93;;
18228;SDS011;9239;50.932;3.142;2023-04-07T00:11:36;9.70;;;8.80;;
18228;SDS011;9239;50.932;3.142;2023-04-07T00:14:03;10.17;;;7.97;;
18228;SDS011;9239;50.932;3.142;2023-04-07T00:16:30;10.93;;;8.23;;
18228;SDS011;9239;50.932;3.142;2023-04-07T00:18:57;12.13;;;8.33;;
18228;SDS011;9239;50.932;3.142;2023-04-07T00:21:23;13.27;;;9.13;;
18228;SDS011;9239;50.932;3.142;2023-04-07T00:23:51;9.73;;;8.37;;
18228;SDS011;9239;50.932;3.142;2023-04-07T00:26:18;10.50;;;8.80;;
18228;SDS011;9239;50.932;3.142;2023-04-07T00:28:46;9.60;;;8.60;;
18228;SDS011;9239;50.932;3.142;2023-04-07T00:31:14;12.67;;;9.10;;
18228;SDS011;9239;50.932;3.142;2023-04-07T00:33:41;10.77;;;9.77;;
18228;SDS011;9239;50.932;3.142;2023-04-07T00:36:08;10.07;;;9.03;;
18228;SDS011;9239;50.932;3.142;2023-04-07T00:38:35;10.27;;;9.17;;
18228;SDS011;9239;50.932;3.142;2023-04-07T00:41:02;11.07;;;8.80;;
18228;SDS011;9239;50.932;3.142;2023-04-07T00:43:28;11.17;;;8.80;;
18228;SDS011;9239;50.932;3.142;2023-04-07T00:45:57;9.57;;;8.23;;
18228;SDS011;9239;50.932;3.142;2023-04-07T00:48:23;9.57;;;8.67;;
18228;SDS011;9239;50.932;3.142;2023-04-07T00:50:50;9.90;;;8.87;;
18228;SDS011;9239;50.932;3.142;2023-04-07T00:53:17;11.07;;;9.00;;
18228;SDS011;9239;50.932;3.142;2023-04-07T00:55:46;9.83;;;8.93;;
18228;SDS011;9239;50.932;3.142;2023-04-07T00:58:13;9.10;;;7.73;;
18228;SDS011;9239;50.932;3.142;2023-04-07T01:00:42;14.50;;;8.80;;
18228;SDS011;9239;50.932;3.142;2023-04-07T01:03:17;13.43;;;9.07;;
18228;SDS011;9239;50.932;3.142;2023-04-07T01:05:49;11.43;;;8.77;;
18228;SDS011;9239;50.932;3.142;2023-04-07T01:08:20;9.03;;;7.33;;
18228;SDS011;9239;50.932;3.142;2023-04-07T01:10:55;8.83;;;7.97;;
18228;SDS011;9239;50.932;3.142;2023-04-07T01:13:29;10.30;;;8.30;;
18228;SDS011;9239;50.932;3.142;2023-04-07T01:16:00;11.07;;;7.60;;
18228;SDS011;9239;50.932;3.142;2023-04-07T01:18:32;10.33;;;7.70;;
18228;SDS011;9239;50.932;3.142;2023-04-07T01:21:03;8.87;;;7.07;;
18228;SDS011;9239;50.932;3.142;2023-04-07T01:23:46;7.77;;;6.77;;
18228;SDS011;9239;50.932;3.142;2023-04-07T01:26:20;9.10;;;6.23;;
18228;SDS011;9239;50.932;3.142;2023-04-07T01:28:56;8.47;;;6.30;;
18228;SDS011;9239;50.932;3.142;2023-04-07T01:31:42;9.70;;;6.10;;
18228;SDS011;9239;50.932;3.142;2023-04-07T01:34:11;8.23;;;6.10;;
18228;SDS011;9239;50.932;3.142;2023-04-07T01:36:40;8.03;;;6.00;;
18228;SDS011;9239;50.932;3.142;2023-04-07T01:39:08;6.63;;;5.80;;
18228;SDS011;9239;50.932;3.142;2023-04-07T01:41:36;6.57;;;4.80;;
18228;SDS011;9239;50.932;3.142;2023-04-07T01:44:05;6.90;;;5.27;;
18228;SDS011;9239;50.932;3.142;2023-04-07T01:46:33;6.40;;;5.03;;
18228;SDS011;9239;50.932;3.142;2023-04-07T01:49:01;11.87;;;6.13;;
18228;SDS011;9239;50.932;3.142;2023-04-07T01:51:29;6.83;;;4.93;;
18228;SDS011;9239;50.932;3.142;2023-04-07T01:53:56;8.00;;;4.83;;
18228;SDS011;9239;50.932;3.142;2023-04-07T01:56:24;6.87;;;5.30;;
18228;SDS011;9239;50.932;3.142;2023-04-07T01:58:51;5.50;;;4.37;;
18228;SDS011;9239;50.932;3.142;2023-04-07T02:01:18;6.63;;;5.43;;
18228;SDS011;9239;50.932;3.142;2023-04-07T02:03:45;9.17;;;6.00;;
18228;SDS011;9239;50.932;3.142;2023-04-07T02:06:21;9.87;;;7.33;;
18228;SDS011;9239;50.932;3.142;2023-04-07T02:08:54;12.87;;;9.20;;
18228;SDS011;9239;50.932;3.142;2023-04-07T02:11:25;15.37;;;11.50;;
18228;SDS011;9239;50.932;3.142;2023-04-07T02:13:54;14.80;;;10.97;;
18228;SDS011;9239;50.932;3.142;2023-04-07T02:16:22;16.07;;;13.20;;
18228;SDS011;9239;50.932;3.142;2023-04-07T02:18:50;22.43;;;15.10;;
18228;SDS011;9239;50.932;3.142;2023-04-07T02:21:20;28.17;;;18.60;;
18228;SDS011;9239;50.932;3.142;2023-04-07T02:23:47;38.57;;;24.67;;
18228;SDS011;9239;50.932;3.142;2023-04-07T02:26:14;44.33;;;30.50;;
18228;SDS011;9239;50.932;3.142;2023-04-07T02:28:41;48.80;;;34.37;;
18228;SDS011;9239;50.932;3.142;2023-04-07T02:31:08;45.57;;;31.60;;
18228;SDS011;9239;50.932;3.142;2023-04-07T02:33:37;36.30;;;24.50;;
18228;SDS011;9239;50.932;3.142;2023-04-07T02:36:04;31.90;;;22.60;;
18228;SDS011;9239;50.932;3.142;2023-04-07T02:38:32;23.33;;;16.73;;
18228;SDS011;9239;50.932;3.142;2023-04-07T02:40:59;17.67;;;14.63;;
18228;SDS011;9239;50.932;3.142;2023-04-07T02:43:26;15.47;;;12.47;;
18228;SDS011;9239;50.932;3.142;2023-04-07T02:45:53;19.57;;;13.23;;
18228;SDS011;9239;50.932;3.142;2023-04-07T02:48:20;15.57;;;11.07;;
18228;SDS011;9239;50.932;3.142;2023-04-07T02:50:47;12.77;;;11.43;;
18228;SDS011;9239;50.932;3.142;2023-04-07T02:53:14;16.63;;;11.90;;
18228;SDS011;9239;50.932;3.142;2023-04-07T02:55:42;15.27;;;12.33;;
18228;SDS011;9239;50.932;3.142;2023-04-07T02:58:08;15.10;;;11.57;;
18228;SDS011;9239;50.932;3.142;2023-04-07T03:00:35;18.03;;;13.80;;
18228;SDS011;9239;50.932;3.142;2023-04-07T03:03:02;15.33;;;13.80;;
18228;SDS011;9239;50.932;3.142;2023-04-07T03:05:29;21.33;;;14.53;;
18228;SDS011;9239;50.932;3.142;2023-04-07T03:07:56;15.17;;;12.63;;
18228;SDS011;9239;50.932;3.142;2023-04-07T03:10:23;17.87;;;14.40;;
18228;SDS011;9239;50.932;3.142;2023-04-07T03:12:51;20.10;;;13.93;;
18228;SDS011;9239;50.932;3.142;2023-04-07T03:15:18;20.00;;;13.67;;
18228;SDS011;9239;50.932;3.142;2023-04-07T03:17:45;18.37;;;14.57;;
18228;SDS011;9239;50.932;3.142;2023-04-07T03:20:12;18.00;;;14.50;;
18228;SDS011;9239;50.932;3.142;2023-04-07T03:22:39;16.53;;;14.73;;
18228;SDS011;9239;50.932;3.142;2023-04-07T03:25:06;21.37;;;15.80;;
18228;SDS011;9239;50.932;3.142;2023-04-07T03:27:33;19.07;;;16.40;;
18228;SDS011;9239;50.932;3.142;2023-04-07T03:30:01;22.10;;;16.70;;
18228;SDS011;9239;50.932;3.142;2023-04-07T03:32:28;21.80;;;16.23;;
18228;SDS011;9239;50.932;3.142;2023-04-07T03:34:55;22.93;;;16.07;;
18228;SDS011;9239;50.932;3.142;2023-04-07T03:37:22;20.57;;;16.93;;
18228;SDS011;9239;50.932;3.142;2023-04-07T03:39:49;22.60;;;16.20;;
18228;SDS011;9239;50.932;3.142;2023-04-07T03:42:16;22.53;;;17.03;;
18228;SDS011;9239;50.932;3.142;2023-04-07T03:44:42;25.43;;;17.07;;
18228;SDS011;9239;50.932;3.142;2023-04-07T03:47:11;21.77;;;16.73;;
18228;SDS011;9239;50.932;3.142;2023-04-07T03:49:37;19.80;;;15.93;;
18228;SDS011;9239;50.932;3.142;2023-04-07T03:52:04;20.17;;;15.27;;
18228;SDS011;9239;50.932;3.142;2023-04-07T03:54:31;21.67;;;15.13;;
18228;SDS011;9239;50.932;3.142;2023-04-07T03:56:59;23.97;;;15.50;;
18228;SDS011;9239;50.932;3.142;2023-04-07T03:59:27;21.73;;;15.67;;
18228;SDS011;9239;50.932;3.142;2023-04-07T04:01:53;19.57;;;14.53;;
18228;SDS011;9239;50.932;3.142;2023-04-07T04:04:22;18.30;;;15.00;;
18228;SDS011;9239;50.932;3.142;2023-04-07T04:06:49;20.97;;;15.23;;
18228;SDS011;9239;50.932;3.142;2023-04-07T04:09:16;17.90;;;13.93;;
18228;SDS011;9239;50.932;3.142;2023-04-07T04:11:43;22.83;;;13.80;;
18228;SDS011;9239;50.932;3.142;2023-04-07T04:14:10;19.43;;;14.40;;
18228;SDS011;9239;50.932;3.142;2023-04-07T04:16:37;16.00;;;13.27;;
18228;SDS011;9239;50.932;3.142;2023-04-07T04:19:03;16.30;;;13.60;;
18228;SDS011;9239;50.932;3.142;2023-04-07T04:21:32;20.50;;;13.50;;
18228;SDS011;9239;50.932;3.142;2023-04-07T04:23:59;18.63;;;14.03;;
18228;SDS011;9239;50.932;3.142;2023-04-07T04:26:25;17.70;;;13.27;;
18228;SDS011;9239;50.932;3.142;2023-04-07T04:28:53;18.20;;;12.87;;
18228;SDS011;9239;50.932;3.142;2023-04-07T04:31:20;18.43;;;13.30;;
18228;SDS011;9239;50.932;3.142;2023-04-07T04:33:47;21.20;;;13.93;;
18228;SDS011;9239;50.932;3.142;2023-04-07T04:36:14;20.57;;;13.53;;
18228;SDS011;9239;50.932;3.142;2023-04-07T04:38:42;16.67;;;13.23;;
18228;SDS011;9239;50.932;3.142;2023-04-07T04:41:09;19.03;;;13.93;;
18228;SDS011;9239;50.932;3.142;2023-04-07T04:43:36;15.23;;;12.37;;
18228;SDS011;9239;50.932;3.142;2023-04-07T04:46:03;15.63;;;11.73;;
18228;SDS011;9239;50.932;3.142;2023-04-07T04:48:30;20.87;;;13.23;;
18228;SDS011;9239;50.932;3.142;2023-04-07T04:50:57;19.57;;;12.37;;
18228;SDS011;9239;50.932;3.142;2023-04-07T04:53:23;15.67;;;12.37;;
18228;SDS011;9239;50.932;3.142;2023-04-07T04:55:52;15.50;;;12.60;;
18228;SDS011;9239;50.932;3.142;2023-04-07T04:58:19;19.07;;;12.73;;
18228;SDS011;9239;50.932;3.142;2023-04-07T05:00:46;23.47;;;13.97;;
18228;SDS011;9239;50.932;3.142;2023-04-07T05:03:12;18.30;;;13.50;;
18228;SDS011;9239;50.932;3.142;2023-04-07T05:05:40;15.07;;;11.83;;
18228;SDS011;9239;50.932;3.142;2023-04-07T05:08:07;14.40;;;11.47;;
18228;SDS011;9239;50.932;3.142;2023-04-07T05:10:36;16.70;;;10.93;;
18228;SDS011;9239;50.932;3.142;2023-04-07T05:13:05;13.07;;;9.77;;
18228;SDS011;9239;50.932;3.142;2023-04-07T05:15:32;16.37;;;10.03;;
18228;SDS011;9239;50.932;3.142;2023-04-07T05:17:59;12.30;;;10.43;;
18228;SDS011;9239;50.932;3.142;2023-04-07T05:20:26;14.63;;;10.03;;
18228;SDS011;9239;50.932;3.142;2023-04-07T05:22:53;13.33;;;9.57;;
18228;SDS011;9239;50.932;3.142;2023-04-07T05:25:20;11.97;;;9.77;;
18228;SDS011;9239;50.932;3.142;2023-04-07T05:27:47;13.13;;;9.33;;
18228;SDS011;9239;50.932;3.142;2023-04-07T05:30:15;12.30;;;10.07;;
18228;SDS011;9239;50.932;3.142;2023-04-07T05:32:42;12.37;;;9.10;;
18228;SDS011;9239;50.932;3.142;2023-04-07T05:35:09;14.00;;;9.40;;
18228;SDS011;9239;50.932;3.142;2023-04-07T05:37:36;10.77;;;8.70;;
18228;SDS011;9239;50.932;3.142;2023-04-07T05:40:03;12.57;;;8.10;;
18228;SDS011;9239;50.932;3.142;2023-04-07T05:42:30;10.47;;;8.27;;
18228;SDS011;9239;50.932;3.142;2023-04-07T05:44:57;10.13;;;7.40;;
18228;SDS011;9239;50.932;3.142;2023-04-07T05:47:25;10.93;;;7.90;;
18228;SDS011;9239;50.932;3.142;2023-04-07T05:49:52;14.03;;;8.30;;
18228;SDS011;9239;50.932;3.142;2023-04-07T05:52:19;10.37;;;7.43;;
18228;SDS011;9239;50.932;3.142;2023-04-07T05:54:46;12.77;;;7.53;;
18228;SDS011;9239;50.932;3.142;2023-04-07T05:57:13;11.43;;;8.80;;
18228;SDS011;9239;50.932;3.142;2023-04-07T05:59:40;10.77;;;8.33;;
18228;SDS011;9239;50.932;3.142;2023-04-07T06:02:07;9.33;;;7.67;;
18228;SDS011;9239;50.932;3.142;2023-04-07T06:04:35;10.47;;;8.23;;
18228;SDS011;9239;50.932;3.142;2023-04-07T06:07:03;10.70;;;7.40;;
18228;SDS011;9239;50.932;3.142;2023-04-07T06:09:30;11.80;;;8.30;;
18228;SDS011;9239;50.932;3.142;2023-04-07T06:11:57;10.30;;;7.73;;
18228;SDS011;9239;50.932;3.142;2023-04-07T06:14:25;13.33;;;8.27;;
18228;SDS011;9239;50.932;3.142;2023-04-07T06:16:52;11.37;;;7.80;;
18228;SDS011;9239;50.932;3.142;2023-04-07T06:19:19;10.37;;;8.33;;
18228;SDS011;9239;50.932;3.142;2023-04-07T06:21:47;12.73;;;8.73;;
18228;SDS011;9239;50.932;3.142;2023-04-07T06:24:14;11.47;;;8.00;;
18228;SDS011;9239;50.932;3.142;2023-04-07T06:26:41;9.10;;;8.20;;
18228;SDS011;9239;50.932;3.142;2023-04-07T06:29:08;9.07;;;6.77;;
18228;SDS011;9239;50.932;3.142;2023-04-07T06:31:35;10.80;;;7.67;;
18228;SDS011;9239;50.932;3.142;2023-04-07T06:34:02;12.93;;;8.17;;
18228;SDS011;9239;50.932;3.142;2023-04-07T06:36:28;10.93;;;7.37;;
18228;SDS011;9239;50.932;3.142;2023-04-07T06:38:57;9.03;;;7.13;;
18228;SDS011;9239;50.932;3.142;2023-04-07T06:41:23;10.20;;;7.47;;
18228;SDS011;9239;50.932;3.142;2023-04-07T06:43:50;11.17;;;7.70;;
18228;SDS011;9239;50.932;3.142;2023-04-07T06:46:17;10.97;;;7.37;;
18228;SDS011;9239;50.932;3.142;2023-04-07T06:48:44;10.50;;;7.83;;
18228;SDS011;9239;50.932;3.142;2023-04-07T06:51:11;10.07;;;7.50;;
18228;SDS011;9239;50.932;3.142;2023-04-07T06:53:38;9.90;;;7.90;;
18228;SDS011;9239;50.932;3.142;2023-04-07T06:56:07;8.40;;;7.10;;
18228;SDS011;9239;50.932;3.142;2023-04-07T06:58:35;9.83;;;7.30;;
18228;SDS011;9239;50.932;3.142;2023-04-07T07:01:03;11.63;;;7.13;;
18228;SDS011;9239;50.932;3.142;2023-04-07T07:03:30;9.53;;;6.93;;
18228;SDS011;9239;50.932;3.142;2023-04-07T07:05:58;11.00;;;7.67;;
18228;SDS011;9239;50.932;3.142;2023-04-07T07:08:26;10.93;;;7.67;;
18228;SDS011;9239;50.932;3.142;2023-04-07T07:10:53;9.80;;;7.30;;
18228;SDS011;9239;50.932;3.142;2023-04-07T07:13:23;10.23;;;7.83;;
18228;SDS011;9239;50.932;3.142;2023-04-07T07:15:51;8.17;;;7.10;;
18228;SDS011;9239;50.932;3.142;2023-04-07T07:18:18;14.57;;;8.07;;
18228;SDS011;9239;50.932;3.142;2023-04-07T07:20:45;10.70;;;8.03;;
18228;SDS011;9239;50.932;3.142;2023-04-07T07:23:12;12.17;;;7.80;;
18228;SDS011;9239;50.932;3.142;2023-04-07T07:25:39;10.73;;;7.73;;
18228;SDS011;9239;50.932;3.142;2023-04-07T07:28:06;9.80;;;7.70;;
18228;SDS011;9239;50.932;3.142;2023-04-07T07:30:35;13.77;;;8.10;;
18228;SDS011;9239;50.932;3.142;2023-04-07T07:33:04;8.83;;;7.93;;
18228;SDS011;9239;50.932;3.142;2023-04-07T07:35:31;9.10;;;7.23;;
18228;SDS011;9239;50.932;3.142;2023-04-07T07:37:57;11.17;;;7.53;;
18228;SDS011;9239;50.932;3.142;2023-04-07T07:40:26;8.47;;;7.30;;
18228;SDS011;9239;50.932;3.142;2023-04-07T07:42:57;10.13;;;8.20;;
18228;SDS011;9239;50.932;3.142;2023-04-07T07:45:25;9.37;;;7.50;;
18228;SDS011;9239;50.932;3.142;2023-04-07T07:47:54;7.83;;;7.03;;
18228;SDS011;9239;50.932;3.142;2023-04-07T07:50:21;9.40;;;7.23;;
18228;SDS011;9239;50.932;3.142;2023-04-07T07:52:48;9.73;;;6.57;;
18228;SDS011;9239;50.932;3.142;2023-04-07T07:55:15;8.77;;;6.80;;
18228;SDS011;9239;50.932;3.142;2023-04-07T07:57:42;16.37;;;8.67;;
18228;SDS011;9239;50.932;3.142;2023-04-07T08:00:09;9.00;;;7.80;;
18228;SDS011;9239;50.932;3.142;2023-04-07T08:02:37;10.57;;;7.60;;
18228;SDS011;9239;50.932;3.142;2023-04-07T08:05:05;11.17;;;7.33;;
18228;SDS011;9239;50.932;3.142;2023-04-07T08:07:33;8.27;;;6.63;;
18228;SDS011;9239;50.932;3.142;2023-04-07T08:10:00;7.93;;;6.90;;
18228;SDS011;9239;50.932;3.142;2023-04-07T08:12:27;11.53;;;6.70;;
18228;SDS011;9239;50.932;3.142;2023-04-07T08:14:54;9.13;;;6.87;;
18228;SDS011;9239;50.932;3.142;2023-04-07T08:17:21;10.83;;;7.33;;
18228;SDS011;9239;50.932;3.142;2023-04-07T08:19:48;6.83;;;6.03;;
18228;SDS011;9239;50.932;3.142;2023-04-07T08:22:16;7.10;;;5.67;;
18228;SDS011;9239;50.932;3.142;2023-04-07T08:24:43;8.73;;;6.07;;
18228;SDS011;9239;50.932;3.142;2023-04-07T08:27:10;9.77;;;6.10;;
18228;SDS011;9239;50.932;3.142;2023-04-07T08:29:37;9.60;;;5.97;;
18228;SDS011;9239;50.932;3.142;2023-04-07T08:32:04;6.23;;;5.63;;
18228;SDS011;9239;50.932;3.142;2023-04-07T08:34:31;6.37;;;5.37;;
18228;SDS011;9239;50.932;3.142;2023-04-07T08:36:58;6.47;;;5.87;;
18228;SDS011;9239;50.932;3.142;2023-04-07T08:39:26;5.70;;;5.10;;
18228;SDS011;9239;50.932;3.142;2023-04-07T08:41:53;5.97;;;5.20;;
18228;SDS011;9239;50.932;3.142;2023-04-07T08:44:21;7.77;;;5.33;;
18228;SDS011;9239;50.932;3.142;2023-04-07T08:46:50;7.10;;;5.07;;
18228;SDS011;9239;50.932;3.142;2023-04-07T08:49:21;5.97;;;3.80;;
18228;SDS011;9239;50.932;3.142;2023-04-07T08:51:53;3.67;;;3.37;;
18228;SDS011;9239;50.932;3.142;2023-04-07T08:54:22;4.97;;;3.60;;
18228;SDS011;9239;50.932;3.142;2023-04-07T08:56:51;7.17;;;4.33;;
18228;SDS011;9239;50.932;3.142;2023-04-07T08:59:18;6.80;;;4.23;;
18228;SDS011;9239;50.932;3.142;2023-04-07T09:01:50;6.13;;;3.73;;
18228;SDS011;9239;50.932;3.142;2023-04-07T09:04:19;6.50;;;3.90;;
18228;SDS011;9239;50.932;3.142;2023-04-07T09:06:47;6.03;;;4.07;;
18228;SDS011;9239;50.932;3.142;2023-04-07T09:09:14;3.87;;;3.50;;
18228;SDS011;9239;50.932;3.142;2023-04-07T09:11:41;8.37;;;4.13;;
18228;SDS011;9239;50.932;3.142;2023-04-07T09:14:09;5.10;;;3.10;;
18228;SDS011;9239;50.932;3.142;2023-04-07T09:16:37;4.17;;;3.10;;
18228;SDS011;9239;50.932;3.142;2023-04-07T09:19:04;3.73;;;2.63;;
18228;SDS011;9239;50.932;3.142;2023-04-07T09:21:45;4.47;;;2.73;;
18228;SDS011;9239;50.932;3.142;2023-04-07T09:24:20;5.10;;;1.80;;
18228;SDS011;9239;50.932;3.142;2023-04-07T09:26:47;6.80;;;4.30;;
18228;SDS011;9239;50.932;3.142;2023-04-07T09:29:18;4.80;;;1.90;;
18228;SDS011;9239;50.932;3.142;2023-04-07T09:31:47;1.93;;;1.73;;
18228;SDS011;9239;50.932;3.142;2023-04-07T09:34:26;4.03;;;2.33;;
18228;SDS011;9239;50.932;3.142;2023-04-07T09:36:54;4.60;;;1.77;;
18228;SDS011;9239;50.932;3.142;2023-04-07T09:39:21;5.13;;;2.60;;
18228;SDS011;9239;50.932;3.142;2023-04-07T09:41:48;6.77;;;2.83;;
18228;SDS011;9239;50.932;3.142;2023-04-07T09:44:16;8.73;;;2.63;;
18228;SDS011;9239;50.932;3.142;2023-04-07T09:46:48;7.33;;;2.20;;
18228;SDS011;9239;50.932;3.142;2023-04-07T09:49:16;4.00;;;1.57;;
18228;SDS011;9239;50.932;3.142;2023-04-07T09:51:53;4.70;;;1.87;;
18228;SDS011;9239;50.932;3.142;2023-04-07T09:54:30;4.07;;;1.87;;
18228;SDS011;9239;50.932;3.142;2023-04-07T09:57:00;2.83;;;1.93;;
18228;SDS011;9239;50.932;3.142;2023-04-07T09:59:29;6.77;;;2.80;;
18228;SDS011;9239;50.932;3.142;2023-04-07T10:01:57;4.50;;;2.20;;
18228;SDS011;9239;50.932;3.142;2023-04-07T10:04:25;4.97;;;1.60;;
18228;SDS011;9239;50.932;3.142;2023-04-07T10:06:53;3.67;;;1.67;;
18228;SDS011;9239;50.932;3.142;2023-04-07T10:09:23;2.10;;;1.30;;
18228;SDS011;9239;50.932;3.142;2023-04-07T10:11:52;4.47;;;1.57;;
18228;SDS011;9239;50.932;3.142;2023-04-07T10:14:21;4.27;;;1.70;;
18228;SDS011;9239;50.932;3.142;2023-04-07T10:16:53;4.33;;;1.90;;
18228;SDS011;9239;50.932;3.142;2023-04-07T10:19:21;2.53;;;1.57;;
18228;SDS011;9239;50.932;3.142;2023-04-07T10:21:50;10.10;;;1.97;;
18228;SDS011;9239;50.932;3.142;2023-04-07T10:24:24;2.93;;;1.37;;
18228;SDS011;9239;50.932;3.142;2023-04-07T10:27:13;3.37;;;1.70;;
18228;SDS011;9239;50.932;3.142;2023-04-07T10:29:43;3.60;;;1.47;;
18228;SDS011;9239;50.932;3.142;2023-04-07T10:32:15;2.63;;;1.27;;
18228;SDS011;9239;50.932;3.142;2023-04-07T10:37:30;2.83;;;1.40;;
18228;SDS011;9239;50.932;3.142;2023-04-07T10:42:53;3.97;;;1.20;;
18228;SDS011;9239;50.932;3.142;2023-04-07T10:48:26;4.57;;;1.43;;
18228;SDS011;9239;50.932;3.142;2023-04-07T10:51:13;4.60;;;1.47;;
18228;SDS011;9239;50.932;3.142;2023-04-07T10:59:39;2.57;;;1.43;;
18228;SDS011;9239;50.932;3.142;2023-04-07T11:02:29;4.77;;;1.53;;
18228;SDS011;9239;50.932;3.142;2023-04-07T11:05:01;4.17;;;1.83;;
18228;SDS011;9239;50.932;3.142;2023-04-07T11:10:16;2.10;;;1.40;;
18228;SDS011;9239;50.932;3.142;2023-04-07T11:12:43;2.23;;;1.80;;
18228;SDS011;9239;50.932;3.142;2023-04-07T11:15:23;3.93;;;1.80;;
18228;SDS011;9239;50.932;3.142;2023-04-07T11:20:41;1.93;;;1.30;;
18228;SDS011;9239;50.932;3.142;2023-04-07T11:23:13;3.43;;;1.57;;
18228;SDS011;9239;50.932;3.142;2023-04-07T11:25:41;2.60;;;1.67;;
18228;SDS011;9239;50.932;3.142;2023-04-07T11:28:09;4.23;;;1.43;;
18228;SDS011;9239;50.932;3.142;2023-04-07T11:30:38;2.83;;;1.23;;
18228;SDS011;9239;50.932;3.142;2023-04-07T11:33:13;1.80;;;1.00;;
18228;SDS011;9239;50.932;3.142;2023-04-07T11:35:47;5.90;;;1.67;;
18228;SDS011;9239;50.932;3.142;2023-04-07T11:38:15;2.87;;;1.47;;
18228;SDS011;9239;50.932;3.142;2023-04-07T11:40:43;2.07;;;1.67;;
18228;SDS011;9239;50.932;3.142;2023-04-07T11:43:17;4.87;;;2.10;;
18228;SDS011;9239;50.932;3.142;2023-04-07T11:45:45;2.63;;;1.50;;
18228;SDS011;9239;50.932;3.142;2023-04-07T11:48:24;5.60;;;1.73;;
18228;SDS011;9239;50.932;3.142;2023-04-07T11:50:53;3.60;;;1.83;;
18228;SDS011;9239;50.932;3.142;2023-04-07T11:53:26;4.37;;;1.70;;
18228;SDS011;9239;50.932;3.142;2023-04-07T11:56:03;3.57;;;1.63;;
18228;SDS011;9239;50.932;3.142;2023-04-07T11:58:33;5.83;;;1.90;;
18228;SDS011;9239;50.932;3.142;2023-04-07T12:01:01;4.87;;;1.50;;
18228;SDS011;9239;50.932;3.142;2023-04-07T12:03:31;4.43;;;1.60;;
18228;SDS011;9239;50.932;3.142;2023-04-07T12:05:59;5.77;;;1.57;;
18228;SDS011;9239;50.932;3.142;2023-04-07T12:08:39;4.60;;;1.70;;
18228;SDS011;9239;50.932;3.142;2023-04-07T12:11:08;4.53;;;1.53;;
18228;SDS011;9239;50.932;3.142;2023-04-07T12:13:35;3.63;;;1.70;;
18228;SDS011;9239;50.932;3.142;2023-04-07T12:16:03;3.23;;;1.73;;
18228;SDS011;9239;50.932;3.142;2023-04-07T12:18:30;3.43;;;1.60;;
18228;SDS011;9239;50.932;3.142;2023-04-07T12:20:57;5.87;;;2.90;;
18228;SDS011;9239;50.932;3.142;2023-04-07T12:23:25;3.40;;;1.57;;
18228;SDS011;9239;50.932;3.142;2023-04-07T12:25:52;6.03;;;1.80;;
18228;SDS011;9239;50.932;3.142;2023-04-07T12:28:19;3.63;;;1.70;;
18228;SDS011;9239;50.932;3.142;2023-04-07T12:30:46;6.93;;;1.97;;
18228;SDS011;9239;50.932;3.142;2023-04-07T12:33:13;4.80;;;2.10;;
18228;SDS011;9239;50.932;3.142;2023-04-07T12:35:40;4.70;;;2.00;;
18228;SDS011;9239;50.932;3.142;2023-04-07T12:38:07;7.30;;;1.83;;
18228;SDS011;9239;50.932;3.142;2023-04-07T12:40:36;2.83;;;1.43;;
18228;SDS011;9239;50.932;3.142;2023-04-07T12:43:03;4.97;;;1.50;;
18228;SDS011;9239;50.932;3.142;2023-04-07T12:45:31;4.03;;;1.80;;
18228;SDS011;9239;50.932;3.142;2023-04-07T12:47:58;2.83;;;1.50;;
18228;SDS011;9239;50.932;3.142;2023-04-07T12:50:25;3.10;;;1.40;;
18228;SDS011;9239;50.932;3.142;2023-04-07T12:52:53;2.83;;;1.50;;
18228;SDS011;9239;50.932;3.142;2023-04-07T12:55:20;5.90;;;1.70;;
18228;SDS011;9239;50.932;3.142;2023-04-07T12:57:49;5.37;;;1.87;;
18228;SDS011;9239;50.932;3.142;2023-04-07T13:00:16;7.57;;;2.00;;
18228;SDS011;9239;50.932;3.142;2023-04-07T13:02:42;5.97;;;1.70;;
18228;SDS011;9239;50.932;3.142;2023-04-07T13:05:09;6.17;;;1.83;;
18228;SDS011;9239;50.932;3.142;2023-04-07T13:07:36;4.43;;;2.13;;
18228;SDS011;9239;50.932;3.142;2023-04-07T13:10:04;5.20;;;1.97;;
18228;SDS011;9239;50.932;3.142;2023-04-07T13:12:33;3.10;;;1.73;;
18228;SDS011;9239;50.932;3.142;2023-04-07T13:15:02;4.37;;;1.63;;
18228;SDS011;9239;50.932;3.142;2023-04-07T13:17:29;3.27;;;1.70;;
18228;SDS011;9239;50.932;3.142;2023-04-07T13:19:56;3.10;;;1.87;;
18228;SDS011;9239;50.932;3.142;2023-04-07T13:22:23;5.17;;;2.03;;
18228;SDS011;9239;50.932;3.142;2023-04-07T13:24:50;4.83;;;1.87;;
18228;SDS011;9239;50.932;3.142;2023-04-07T13:27:17;6.43;;;2.10;;
18228;SDS011;9239;50.932;3.142;2023-04-07T13:29:45;3.63;;;1.60;;
18228;SDS011;9239;50.932;3.142;2023-04-07T13:32:13;2.97;;;1.50;;
18228;SDS011;9239;50.932;3.142;2023-04-07T13:34:41;4.17;;;1.83;;
18228;SDS011;9239;50.932;3.142;2023-04-07T13:37:09;5.40;;;2.50;;
18228;SDS011;9239;50.932;3.142;2023-04-07T13:39:35;2.83;;;1.67;;
18228;SDS011;9239;50.932;3.142;2023-04-07T13:42:02;5.33;;;2.03;;
18228;SDS011;9239;50.932;3.142;2023-04-07T13:44:30;3.27;;;1.80;;
18228;SDS011;9239;50.932;3.142;2023-04-07T13:46:58;7.77;;;2.07;;
18228;SDS011;9239;50.932;3.142;2023-04-07T13:49:26;3.80;;;2.03;;
18228;SDS011;9239;50.932;3.142;2023-04-07T13:51:53;5.57;;;2.03;;
18228;SDS011;9239;50.932;3.142;2023-04-07T13:54:20;7.73;;;2.20;;
18228;SDS011;9239;50.932;3.142;2023-04-07T13:56:48;4.13;;;1.80;;
18228;SDS011;9239;50.932;3.142;2023-04-07T13:59:15;5.27;;;2.50;;
18228;SDS011;9239;50.932;3.142;2023-04-07T14:01:42;2.93;;;1.60;;
18228;SDS011;9239;50.932;3.142;2023-04-07T14:04:08;7.27;;;1.90;;
18228;SDS011;9239;50.932;3.142;2023-04-07T14:06:37;5.63;;;2.00;;
18228;SDS011;9239;50.932;3.142;2023-04-07T14:09:04;2.90;;;2.50;;
18228;SDS011;9239;50.932;3.142;2023-04-07T14:11:32;6.77;;;1.77;;
18228;SDS011;9239;50.932;3.142;2023-04-07T14:14:00;4.30;;;2.00;;
18228;SDS011;9239;50.932;3.142;2023-04-07T14:16:27;5.10;;;1.50;;
18228;SDS011;9239;50.932;3.142;2023-04-07T14:18:53;4.30;;;1.53;;
18228;SDS011;9239;50.932;3.142;2023-04-07T14:21:21;3.97;;;1.43;;
18228;SDS011;9239;50.932;3.142;2023-04-07T14:23:49;3.17;;;1.67;;
18228;SDS011;9239;50.932;3.142;2023-04-07T14:26:16;3.97;;;2.17;;
18228;SDS011;9239;50.932;3.142;2023-04-07T14:28:43;6.43;;;1.80;;
18228;SDS011;9239;50.932;3.142;2023-04-07T14:31:13;2.23;;;1.43;;
18228;SDS011;9239;50.932;3.142;2023-04-07T14:33:40;2.37;;;1.70;;
18228;SDS011;9239;50.932;3.142;2023-04-07T14:36:07;6.07;;;1.90;;
18228;SDS011;9239;50.932;3.142;2023-04-07T14:38:34;3.43;;;1.37;;
18228;SDS011;9239;50.932;3.142;2023-04-07T14:41:02;4.63;;;2.07;;
18228;SDS011;9239;50.932;3.142;2023-04-07T14:43:30;3.57;;;1.50;;
18228;SDS011;9239;50.932;3.142;2023-04-07T14:45:56;4.90;;;1.57;;
18228;SDS011;9239;50.932;3.142;2023-04-07T14:48:24;4.13;;;1.90;;
18228;SDS011;9239;50.932;3.142;2023-04-07T14:50:52;3.10;;;2.23;;
18228;SDS011;9239;50.932;3.142;2023-04-07T14:53:19;2.87;;;2.03;;
18228;SDS011;9239;50.932;3.142;2023-04-07T14:55:46;6.93;;;1.93;;
18228;SDS011;9239;50.932;3.142;2023-04-07T14:58:14;4.90;;;2.47;;
18228;SDS011;9239;50.932;3.142;2023-04-07T15:00:41;6.67;;;2.17;;
18228;SDS011;9239;50.932;3.142;2023-04-07T15:03:08;2.37;;;1.60;;
18228;SDS011;9239;50.932;3.142;2023-04-07T15:05:35;3.47;;;1.27;;
18228;SDS011;9239;50.932;3.142;2023-04-07T15:08:02;3.00;;;1.17;;
18228;SDS011;9239;50.932;3.142;2023-04-07T15:10:29;2.37;;;1.43;;
18228;SDS011;9239;50.932;3.142;2023-04-07T15:12:59;2.37;;;1.37;;
18228;SDS011;9239;50.932;3.142;2023-04-07T15:15:27;2.00;;;1.00;;
18228;SDS011;9239;50.932;3.142;2023-04-07T15:17:54;2.87;;;1.40;;
18228;SDS011;9239;50.932;3.142;2023-04-07T15:20:21;2.57;;;1.13;;